createdAt,value
2018-12-06T00:02:16.509Z,7.27
2018-12-06T00:04:44.898Z,7.03
2018-12-06T00:07:13.263Z,7.50
2018-12-06T00:09:41.630Z,7.93
2018-12-06T00:12:09.999Z,8.50
2018-12-06T00:14:38.380Z,7.63
2018-12-06T00:17:06.767Z,7.70
2018-12-06T00:19:35.145Z,8.23
2018-12-06T00:22:03.524Z,9.33
2018-12-06T00:24:31.901Z,10.17
2018-12-06T00:27:00.295Z,10.30
2018-12-06T00:29:28.674Z,10.33
2018-12-06T00:31:57.059Z,10.57
2018-12-06T00:34:25.431Z,10.80
2018-12-06T00:36:53.799Z,9.73
2018-12-06T00:39:22.181Z,11.00
2018-12-06T00:41:50.579Z,10.40
2018-12-06T00:44:18.952Z,10.20
2018-12-06T00:46:47.314Z,9.93
2018-12-06T00:49:15.691Z,11.53
2018-12-06T00:51:44.081Z,10.93
2018-12-06T00:54:12.468Z,9.57
2018-12-06T00:56:40.848Z,9.93
2018-12-06T00:59:09.211Z,8.67
2018-12-06T01:01:37.584Z,8.77
2018-12-06T01:04:05.946Z,8.67
2018-12-06T01:06:34.317Z,8.83
2018-12-06T01:09:02.680Z,9.17
2018-12-06T01:11:31.056Z,9.47
2018-12-06T01:13:59.426Z,9.13
2018-12-06T01:16:27.807Z,8.50
2018-12-06T01:18:56.167Z,8.17
2018-12-06T01:21:24.546Z,8.63
2018-12-06T01:23:52.909Z,9.33
2018-12-06T01:26:21.281Z,8.97
2018-12-06T01:28:49.654Z,8.70
2018-12-06T01:31:18.032Z,8.80
2018-12-06T01:33:46.407Z,8.73
2018-12-06T01:36:14.790Z,9.10
2018-12-06T01:38:43.168Z,9.60
2018-12-06T01:41:11.760Z,9.07
2018-12-06T01:43:39.927Z,9.50
2018-12-06T01:46:08.304Z,10.50
2018-12-06T01:48:36.679Z,11.33
2018-12-06T01:51:05.049Z,13.90
2018-12-06T01:53:33.438Z,14.83
2018-12-06T01:56:01.814Z,34.37
2018-12-06T01:58:30.186Z,29.50
2018-12-06T02:00:58.561Z,35.40
2018-12-06T02:03:26.929Z,40.40
2018-12-06T02:05:55.309Z,21.00
2018-12-06T02:08:23.680Z,14.60
2018-12-06T02:10:52.056Z,13.63
2018-12-06T02:13:20.434Z,28.50
2018-12-06T02:15:48.811Z,25.20
2018-12-06T02:18:17.191Z,23.17
2018-12-06T02:20:45.564Z,19.77
2018-12-06T02:23:13.942Z,21.27
2018-12-06T02:25:42.317Z,18.50
2018-12-06T02:28:10.701Z,16.70
2018-12-06T02:30:39.076Z,15.43
2018-12-06T02:33:07.545Z,15.43
2018-12-06T02:35:35.938Z,14.00
2018-12-06T02:38:04.310Z,17.03
2018-12-06T02:40:32.688Z,17.77
2018-12-06T02:43:01.042Z,17.23
2018-12-06T02:45:29.446Z,23.33
2018-12-06T02:47:57.821Z,30.07
2018-12-06T02:50:26.208Z,25.63
2018-12-06T02:52:54.845Z,26.60
2018-12-06T02:55:23.224Z,24.63
2018-12-06T02:57:51.602Z,22.87
2018-12-06T03:00:20.193Z,19.50
2018-12-06T03:02:48.336Z,19.47
2018-12-06T03:05:16.718Z,16.23
2018-12-06T03:07:45.126Z,15.17
2018-12-06T03:10:13.495Z,16.37
2018-12-06T03:12:41.874Z,15.97
2018-12-06T03:15:10.273Z,16.63
2018-12-06T03:17:38.640Z,15.23
2018-12-06T03:20:07.146Z,14.40
2018-12-06T03:22:35.523Z,14.60
2018-12-06T03:25:03.913Z,19.90
2018-12-06T03:27:32.283Z,19.17
2018-12-06T03:30:00.660Z,20.60
2018-12-06T03:32:29.052Z,20.50
2018-12-06T03:34:57.440Z,18.83
2018-12-06T03:37:25.801Z,19.77
2018-12-06T03:39:54.176Z,21.30
2018-12-06T03:42:22.601Z,20.73
2018-12-06T03:44:50.984Z,18.73
2018-12-06T03:47:19.384Z,19.57
2018-12-06T03:49:47.755Z,20.10
2018-12-06T03:52:16.143Z,19.20
2018-12-06T03:54:44.493Z,19.10
2018-12-06T03:57:12.868Z,20.17
2018-12-06T03:59:41.258Z,19.60
2018-12-06T04:02:09.629Z,18.53
2018-12-06T04:04:38.014Z,17.23
2018-12-06T04:07:06.392Z,17.17
2018-12-06T04:09:34.768Z,16.47
2018-12-06T04:12:03.149Z,17.13
2018-12-06T04:14:31.530Z,18.10
2018-12-06T04:16:59.910Z,17.57
2018-12-06T04:19:28.280Z,16.87
2018-12-06T04:21:56.671Z,15.80
2018-12-06T04:24:25.054Z,16.17
2018-12-06T04:26:53.448Z,14.93
2018-12-06T04:29:21.841Z,14.93
2018-12-06T04:31:50.299Z,15.03
2018-12-06T04:34:18.586Z,14.87
2018-12-06T04:36:46.964Z,13.90
2018-12-06T04:39:15.345Z,14.53
2018-12-06T04:41:43.725Z,14.47
2018-12-06T04:44:12.119Z,13.70
2018-12-06T04:46:40.698Z,13.23
2018-12-06T04:49:08.859Z,14.50
2018-12-06T04:51:37.239Z,12.93
2018-12-06T04:54:05.617Z,13.50
2018-12-06T04:56:34.007Z,14.23
2018-12-06T04:59:02.388Z,13.97
2018-12-06T05:01:30.752Z,16.50
2018-12-06T05:03:59.132Z,14.77
2018-12-06T05:06:26.931Z,14.27
2018-12-06T05:08:55.928Z,15.83
2018-12-06T05:11:24.309Z,15.90
2018-12-06T05:13:52.688Z,34.47
2018-12-06T05:16:21.065Z,35.60
2018-12-06T05:18:49.435Z,23.93
2018-12-06T05:21:17.805Z,16.40
2018-12-06T05:23:46.415Z,15.70
2018-12-06T05:26:14.793Z,9.03
2018-12-06T05:28:43.168Z,8.70
2018-12-06T05:31:11.534Z,11.57
2018-12-06T05:33:39.929Z,12.03
2018-12-06T05:36:08.294Z,15.07
2018-12-06T05:38:36.664Z,14.77
2018-12-06T05:41:05.054Z,14.07
2018-12-06T05:43:33.412Z,13.27
2018-12-06T05:46:01.798Z,19.47
2018-12-06T05:48:30.170Z,22.17
2018-12-06T05:50:58.579Z,18.87
2018-12-06T05:53:26.960Z,15.70
2018-12-06T05:55:55.337Z,14.33
2018-12-06T05:58:23.729Z,14.20
2018-12-06T06:00:52.098Z,11.23
2018-12-06T06:03:20.503Z,16.57
2018-12-06T06:05:48.898Z,13.13
2018-12-06T06:08:17.281Z,14.23
2018-12-06T06:10:45.650Z,10.93
2018-12-06T06:13:14.022Z,5.40
2018-12-06T06:15:42.395Z,5.57
2018-12-06T06:18:10.771Z,12.03
2018-12-06T06:20:39.140Z,5.10
2018-12-06T06:23:07.525Z,8.33
2018-12-06T06:25:35.907Z,5.70
2018-12-06T06:28:04.315Z,9.97
2018-12-06T06:30:32.694Z,26.27
2018-12-06T06:33:01.097Z,9.73
2018-12-06T06:35:30.241Z,8.90
2018-12-06T06:37:58.629Z,6.50
2018-12-06T06:40:27.040Z,7.03
2018-12-06T06:42:55.394Z,7.67
2018-12-06T06:45:23.779Z,8.47
2018-12-06T06:47:52.204Z,7.37
2018-12-06T06:50:20.511Z,8.37
2018-12-06T06:52:50.345Z,8.40
2018-12-06T06:55:17.295Z,8.10
2018-12-06T06:57:45.662Z,7.20
2018-12-06T07:00:14.034Z,5.93
2018-12-06T07:02:42.403Z,5.10
2018-12-06T07:05:11.103Z,5.40
2018-12-06T07:07:39.544Z,4.70
2018-12-06T07:10:07.833Z,3.67
2018-12-06T07:12:36.231Z,4.13
2018-12-06T07:15:04.947Z,4.43
2018-12-06T07:17:33.304Z,4.30
2018-12-06T07:20:01.691Z,4.80
2018-12-06T07:22:30.040Z,4.53
2018-12-06T07:24:58.389Z,4.67
2018-12-06T07:27:26.728Z,3.70
2018-12-06T07:29:55.057Z,8.43
2018-12-06T07:32:23.398Z,4.67
2018-12-06T07:34:51.758Z,4.20
2018-12-06T07:37:20.108Z,4.27
2018-12-06T07:39:48.430Z,4.27
2018-12-06T07:42:17.748Z,4.80
2018-12-06T07:44:46.076Z,4.60
2018-12-06T07:47:14.403Z,4.50
2018-12-06T07:49:42.733Z,5.63
2018-12-06T07:52:11.071Z,5.33
2018-12-06T07:54:39.655Z,5.20
2018-12-06T07:57:07.792Z,4.30
2018-12-06T07:59:36.118Z,4.70
2018-12-06T08:02:04.452Z,4.63
2018-12-06T08:04:33.132Z,5.27
2018-12-06T08:07:01.455Z,5.83
2018-12-06T08:09:29.800Z,7.13
2018-12-06T08:11:58.147Z,7.23
2018-12-06T08:44:21.297Z,5.40
2018-12-06T08:46:46.816Z,10.73
2018-12-06T08:49:15.160Z,7.70
2018-12-06T08:51:43.613Z,5.33
2018-12-06T08:54:12.022Z,5.27
2018-12-06T08:56:40.370Z,5.03
2018-12-06T08:59:08.694Z,6.43
2018-12-06T09:01:37.021Z,6.77
2018-12-06T09:04:05.418Z,5.00
2018-12-06T09:06:33.817Z,5.40
2018-12-06T09:09:02.244Z,4.37
2018-12-06T09:11:30.617Z,5.33
2018-12-06T09:13:58.988Z,4.73
2018-12-06T09:16:27.500Z,5.57
2018-12-06T09:18:56.522Z,5.63
2018-12-06T09:21:24.851Z,6.00
2018-12-06T09:23:53.908Z,6.70
2018-12-06T09:26:22.507Z,6.30
2018-12-06T09:28:50.874Z,9.57
2018-12-06T09:31:19.197Z,6.40
2018-12-06T09:33:59.218Z,6.87
2018-12-06T09:36:27.655Z,5.97
2018-12-06T09:38:55.978Z,6.40
2018-12-06T09:41:24.320Z,6.10
2018-12-06T09:43:52.697Z,5.90
2018-12-06T09:46:21.117Z,7.07
2018-12-06T09:48:49.550Z,6.20
2018-12-06T09:51:17.951Z,6.50
2018-12-06T09:53:46.297Z,6.63
2018-12-06T09:56:14.714Z,6.83
2018-12-06T09:58:43.069Z,7.93
2018-12-06T10:01:11.457Z,9.07
2018-12-06T10:03:40.038Z,10.93
2018-12-06T10:06:08.163Z,7.20
2018-12-06T10:08:36.509Z,8.43
2018-12-06T10:11:04.836Z,5.97
2018-12-06T10:13:33.166Z,6.27
2018-12-06T10:16:01.482Z,5.70
2018-12-06T10:18:29.829Z,7.60
2018-12-06T10:20:58.145Z,8.27
2018-12-06T10:23:26.532Z,7.87
2018-12-06T10:25:56.714Z,7.33
2018-12-06T10:28:25.414Z,6.50
2018-12-06T10:30:53.846Z,6.37
2018-12-06T10:33:22.329Z,6.73
2018-12-06T10:35:50.652Z,7.63
2018-12-06T10:38:18.992Z,7.47
2018-12-06T10:40:47.334Z,7.33
2018-12-06T10:43:15.690Z,7.87
2018-12-06T10:45:44.414Z,7.00
2018-12-06T10:48:12.667Z,7.97
2018-12-06T10:50:41.455Z,7.37
2018-12-06T10:53:09.800Z,7.97
2018-12-06T10:55:38.137Z,8.53
2018-12-06T10:58:06.468Z,8.83
2018-12-06T11:00:40.567Z,8.53
2018-12-06T11:03:12.565Z,8.57
2018-12-06T11:05:40.910Z,18.03
2018-12-06T11:08:09.272Z,10.30
2018-12-06T11:10:37.685Z,10.20
2018-12-06T11:13:06.035Z,15.90
2018-12-06T11:15:34.978Z,8.90
2018-12-06T11:18:03.354Z,8.33
2018-12-06T11:20:31.705Z,10.23
2018-12-06T11:23:00.028Z,11.97
2018-12-06T11:25:28.442Z,11.07
2018-12-06T11:27:56.994Z,12.00
2018-12-06T11:30:25.520Z,8.90
2018-12-06T11:32:54.114Z,9.93
2018-12-06T11:35:22.503Z,14.77
2018-12-06T11:37:51.143Z,13.70
2018-12-06T11:40:19.492Z,15.77
2018-12-06T11:42:48.029Z,10.57
2018-12-06T11:45:16.383Z,12.10
2018-12-06T11:47:44.853Z,8.13
2018-12-06T11:50:13.182Z,8.80
2018-12-06T11:52:41.587Z,7.90
2018-12-06T11:55:10.586Z,7.40
2018-12-06T11:57:39.725Z,10.40
2018-12-06T12:00:08.180Z,29.30
2018-12-06T12:02:38.205Z,11.30
2018-12-06T12:05:06.536Z,12.20
2018-12-06T12:07:34.941Z,11.83
2018-12-06T12:10:03.273Z,6.93
2018-12-06T12:12:32.017Z,9.13
2018-12-06T12:15:01.008Z,9.50
2018-12-06T12:17:29.554Z,9.83
2018-12-06T12:19:57.707Z,10.60
2018-12-06T12:22:26.041Z,11.03
2018-12-06T12:24:54.392Z,13.23
2018-12-06T12:27:22.843Z,10.37
2018-12-06T12:29:51.356Z,10.00
2018-12-06T12:32:19.720Z,10.53
2018-12-06T12:34:48.141Z,11.23
2018-12-06T12:37:16.472Z,10.27
2018-12-06T12:39:44.840Z,9.47
2018-12-06T12:42:13.169Z,9.93
2018-12-06T12:44:41.503Z,11.27
2018-12-06T12:47:09.851Z,10.97
2018-12-06T12:49:38.426Z,11.47
2018-12-06T12:52:06.543Z,11.10
2018-12-06T12:54:35.090Z,22.47
2018-12-06T12:57:03.527Z,11.00
2018-12-06T12:59:31.873Z,10.80
2018-12-06T13:02:00.419Z,11.20
2018-12-06T13:04:28.903Z,32.13
2018-12-06T13:06:57.222Z,11.30
2018-12-06T13:09:25.562Z,11.13
2018-12-06T13:11:54.146Z,12.87
2018-12-06T13:14:22.250Z,15.40
2018-12-06T13:16:50.603Z,14.47
2018-12-06T13:19:19.363Z,11.73
2018-12-06T13:21:47.703Z,12.30
2018-12-06T13:24:16.059Z,11.80
2018-12-06T13:26:44.416Z,12.00
2018-12-06T13:29:12.745Z,12.60
2018-12-06T13:31:41.084Z,12.17
2018-12-06T13:34:09.435Z,12.43
2018-12-06T13:36:37.769Z,14.37
2018-12-06T13:39:06.123Z,13.00
2018-12-06T13:41:34.494Z,13.93
2018-12-06T13:44:02.813Z,13.37
2018-12-06T13:46:31.240Z,12.70
2018-12-06T13:48:59.580Z,13.67
2018-12-06T13:51:28.142Z,14.53
2018-12-06T13:53:56.258Z,14.17
2018-12-06T13:56:24.775Z,22.07
2018-12-06T13:58:53.103Z,24.40
2018-12-06T14:01:21.657Z,19.70
2018-12-06T14:03:49.869Z,16.47
2018-12-06T14:06:18.156Z,21.93
2018-12-06T14:08:46.500Z,19.50
2018-12-06T14:11:14.835Z,32.13
2018-12-06T14:13:43.177Z,15.87
2018-12-06T14:16:11.576Z,16.57
2018-12-06T14:18:39.866Z,25.13
2018-12-06T14:21:08.646Z,20.57
2018-12-06T14:23:36.548Z,18.60
2018-12-06T14:26:04.922Z,17.10
2018-12-06T14:28:35.184Z,16.53
2018-12-06T14:31:04.464Z,27.33
2018-12-06T14:33:32.916Z,19.30
2018-12-06T14:36:02.170Z,17.77
2018-12-06T14:38:30.528Z,15.77
2018-12-06T14:40:58.866Z,17.90
2018-12-06T14:43:27.200Z,18.20
2018-12-06T14:45:55.541Z,18.60
2018-12-06T14:48:23.871Z,19.20
2018-12-06T14:50:52.233Z,19.87
2018-12-06T14:53:20.538Z,20.77
2018-12-06T14:55:48.881Z,17.97
2018-12-06T14:58:17.465Z,21.90
2018-12-06T15:00:45.627Z,22.53
2018-12-06T15:03:13.963Z,19.93
2018-12-06T15:05:42.308Z,20.17
2018-12-06T15:08:10.693Z,23.87
2018-12-06T15:10:39.925Z,21.33
2018-12-06T15:13:08.251Z,26.23
2018-12-06T15:15:36.583Z,22.97
2018-12-06T15:18:06.055Z,26.00
2018-12-06T15:20:34.157Z,23.97
2018-12-06T15:23:02.496Z,22.23
2018-12-06T15:25:30.847Z,24.63
2018-12-06T15:27:59.192Z,23.90
2018-12-06T15:30:27.770Z,23.30
2018-12-06T15:32:55.882Z,22.43
2018-12-06T15:35:24.212Z,21.27
2018-12-06T15:37:52.554Z,23.03
2018-12-06T15:40:20.891Z,23.57
2018-12-06T15:42:49.239Z,22.33
2018-12-06T15:45:17.852Z,22.60
2018-12-06T15:47:45.982Z,23.27
2018-12-06T15:50:14.317Z,23.87
2018-12-06T15:52:42.662Z,24.10
2018-12-06T15:55:10.997Z,27.17
2018-12-06T15:57:39.321Z,24.83
2018-12-06T16:00:07.673Z,24.90
2018-12-06T16:02:36.005Z,23.33
2018-12-06T16:05:04.359Z,24.87
2018-12-06T16:07:32.694Z,22.33
2018-12-06T16:10:01.745Z,24.03
2018-12-06T16:12:30.091Z,24.17
2018-12-06T16:14:58.491Z,21.67
2018-12-06T16:17:26.759Z,23.73
2018-12-06T16:19:55.112Z,22.47
2018-12-06T16:22:23.471Z,24.43
2018-12-06T16:24:51.821Z,24.37
2018-12-06T16:27:20.150Z,24.23
2018-12-06T16:29:51.479Z,22.47
2018-12-06T16:32:16.839Z,23.10
2018-12-06T16:34:45.881Z,25.00
2018-12-06T16:37:14.231Z,25.57
2018-12-06T16:39:42.586Z,24.43
2018-12-06T16:42:11.298Z,25.40
2018-12-06T16:44:39.656Z,23.10
2018-12-06T16:47:08.033Z,26.17
2018-12-06T16:49:36.376Z,25.87
2018-12-06T16:52:04.947Z,24.30
2018-12-06T16:54:33.306Z,23.37
2018-12-06T16:57:01.883Z,26.77
2018-12-06T16:59:30.223Z,23.53
2018-12-06T17:01:58.559Z,21.97
2018-12-06T17:04:26.908Z,22.53
2018-12-06T17:06:55.256Z,22.87
2018-12-06T17:09:23.639Z,23.27
2018-12-06T17:11:52.004Z,25.17
2018-12-06T17:14:20.334Z,23.27
2018-12-06T17:16:48.726Z,108.17
2018-12-06T17:19:17.091Z,35.10
2018-12-06T17:21:45.448Z,25.80
2018-12-06T17:24:13.786Z,21.43
2018-12-06T17:26:42.204Z,21.43
2018-12-06T17:29:10.531Z,20.97
2018-12-06T17:31:38.868Z,22.77
2018-12-06T17:34:07.239Z,21.93
2018-12-06T17:36:35.586Z,21.90
2018-12-06T17:39:03.937Z,22.97
2018-12-06T17:41:32.273Z,22.67
2018-12-06T17:44:00.651Z,25.27
2018-12-06T17:46:28.987Z,22.87
2018-12-06T17:48:57.340Z,25.33
2018-12-06T17:51:26.243Z,25.40
2018-12-06T17:53:54.818Z,25.17
2018-12-06T17:56:23.159Z,27.80
2018-12-06T17:58:51.751Z,29.63
2018-12-06T18:01:20.213Z,25.87
2018-12-06T18:03:48.403Z,25.43
2018-12-06T18:06:16.780Z,27.27
2018-12-06T18:08:46.161Z,23.73
2018-12-06T18:11:14.293Z,24.30
2018-12-06T18:13:42.771Z,23.83
2018-12-06T18:16:11.087Z,24.57
2018-12-06T18:18:40.510Z,25.80
2018-12-06T18:21:07.742Z,28.17
2018-12-06T18:23:36.137Z,26.13
2018-12-06T18:26:04.471Z,30.67
2018-12-06T18:28:32.838Z,27.03
2018-12-06T18:31:01.185Z,28.63
2018-12-06T18:33:29.517Z,27.80
2018-12-06T18:35:57.859Z,28.03
2018-12-06T18:38:26.214Z,27.37
2018-12-06T18:40:54.685Z,25.13
2018-12-06T18:43:23.049Z,28.93
2018-12-06T18:45:51.392Z,26.37
2018-12-06T18:48:19.745Z,26.10
2018-12-06T18:50:48.072Z,27.47
2018-12-06T18:53:17.211Z,25.73
2018-12-06T18:55:45.586Z,81.37
2018-12-06T18:58:13.930Z,27.53
2018-12-06T19:00:42.331Z,27.20
2018-12-06T19:03:11.017Z,27.23
2018-12-06T19:05:39.186Z,28.50
2018-12-06T19:08:08.883Z,30.73
2018-12-06T19:10:35.868Z,28.77
2018-12-06T19:13:04.203Z,31.80
2018-12-06T19:15:32.827Z,68.90
2018-12-06T19:18:00.961Z,52.37
2018-12-06T19:20:29.327Z,38.00
2018-12-06T19:22:58.312Z,32.33
2018-12-06T19:25:26.648Z,34.70
2018-12-06T19:27:55.029Z,36.27
2018-12-06T19:30:23.477Z,31.30
2018-12-06T19:32:57.718Z,29.43
2018-12-06T19:35:21.444Z,30.83
2018-12-06T19:37:48.760Z,30.93
2018-12-06T19:40:17.119Z,29.17
2018-12-06T19:42:45.617Z,32.17
2018-12-06T19:45:14.240Z,34.30
2018-12-06T19:47:43.314Z,41.03
2018-12-06T19:50:11.911Z,67.77
2018-12-06T19:52:40.015Z,29.17
2018-12-06T19:55:08.540Z,26.93
2018-12-06T19:57:36.910Z,27.93
2018-12-06T20:00:05.540Z,28.97
2018-12-06T20:02:33.655Z,30.77
2018-12-06T20:05:01.999Z,27.97
2018-12-06T20:07:31.592Z,29.17
2018-12-06T20:10:01.001Z,27.27
2018-12-06T20:12:30.658Z,28.07
2018-12-06T20:14:58.988Z,28.10
2018-12-06T20:17:27.808Z,27.10
2018-12-06T20:19:57.654Z,60.10
2018-12-06T20:22:26.726Z,30.13
2018-12-06T20:24:55.072Z,30.13
2018-12-06T20:27:23.842Z,27.67
2018-12-06T20:29:52.315Z,27.23
2018-12-06T20:32:20.654Z,29.30
2018-12-06T20:34:49.031Z,28.57
2018-12-06T20:37:17.503Z,26.23
2018-12-06T20:39:46.003Z,25.40
2018-12-06T20:42:14.581Z,26.17
2018-12-06T20:44:43.110Z,26.03
2018-12-06T20:47:11.238Z,26.83
2018-12-06T20:49:39.616Z,25.67
2018-12-06T20:52:07.941Z,27.60
2018-12-06T20:54:36.578Z,25.90
2018-12-06T20:57:04.790Z,26.83
2018-12-06T20:59:34.429Z,25.10
2018-12-06T21:02:02.764Z,24.97
2018-12-06T21:04:31.102Z,25.63
2018-12-06T21:06:59.515Z,26.73
2018-12-06T21:09:27.860Z,28.00
2018-12-06T21:11:56.217Z,26.20
2018-12-06T21:14:24.566Z,24.50
2018-12-06T21:16:53.140Z,24.53
2018-12-06T21:19:21.269Z,25.00
2018-12-06T21:21:49.642Z,24.80
2018-12-06T21:24:17.951Z,23.37
2018-12-06T21:26:46.304Z,24.03
2018-12-06T21:29:15.620Z,23.17
2018-12-06T21:31:43.000Z,21.93
2018-12-06T21:34:11.342Z,23.17
2018-12-06T21:36:39.665Z,22.07
2018-12-06T21:39:08.005Z,22.60
2018-12-06T21:41:36.421Z,27.83
2018-12-06T21:44:04.715Z,23.37
2018-12-06T21:46:33.059Z,22.90
2018-12-06T21:49:01.400Z,21.53
2018-12-06T21:51:29.949Z,21.53
2018-12-06T21:53:58.306Z,20.83
2018-12-06T21:56:26.669Z,21.03
2018-12-06T21:58:55.069Z,21.67
2018-12-06T22:01:23.789Z,21.47
2018-12-06T22:03:52.232Z,21.30
2018-12-06T22:06:20.564Z,21.30
2018-12-06T22:08:48.907Z,25.57
2018-12-06T22:11:17.532Z,22.93
2018-12-06T22:13:46.111Z,19.80
2018-12-06T22:16:14.522Z,19.07
2018-12-06T22:18:42.976Z,20.03
2018-12-06T22:21:11.725Z,20.83
2018-12-06T22:23:40.063Z,20.40
2018-12-06T22:26:09.356Z,21.17
2018-12-06T22:28:36.836Z,21.23
2018-12-06T22:31:05.199Z,20.37
2018-12-06T22:33:33.606Z,21.13
2018-12-06T22:36:02.819Z,20.40
2018-12-06T22:38:34.113Z,19.93
2018-12-06T22:40:58.658Z,20.53
2018-12-06T22:43:27.003Z,20.37
2018-12-06T22:45:55.371Z,19.93
2018-12-06T22:48:23.751Z,19.97
2018-12-06T22:50:52.156Z,19.90
2018-12-06T22:53:20.912Z,20.53
2018-12-06T22:55:50.033Z,20.70
2018-12-06T22:58:18.383Z,20.53
2018-12-06T23:00:46.722Z,18.27
2018-12-06T23:03:15.979Z,18.77
2018-12-06T23:05:45.441Z,19.70
2018-12-06T23:08:13.847Z,18.53
2018-12-06T23:10:42.324Z,17.40
2018-12-06T23:13:13.534Z,17.07
2018-12-06T23:15:43.018Z,18.73
2018-12-06T23:18:11.096Z,19.00
2018-12-06T23:20:41.463Z,19.00
2018-12-06T23:23:10.880Z,18.00
2018-12-06T23:25:39.208Z,18.97
2018-12-06T23:28:09.170Z,18.07
2018-12-06T23:30:40.096Z,17.23
2018-12-06T23:33:08.680Z,18.27
2018-12-06T23:35:39.590Z,18.20
2018-12-06T23:38:06.984Z,18.13
2018-12-06T23:40:36.587Z,18.20
2018-12-06T23:43:05.672Z,18.40
2018-12-06T23:45:34.695Z,19.10
2018-12-06T23:48:03.369Z,17.30
2018-12-06T23:50:33.039Z,17.67
2018-12-06T23:53:01.235Z,18.80
2018-12-06T23:55:29.610Z,16.60
2018-12-06T23:57:58.185Z,18.00
